Time;durP1;ratioP1;P1;durP2;ratioP2;P2;SDS_P1;SDS_P2;PMS_P1;PMS_P2;Temp;Humidity;BMP_temperature;BMP_pressure;BME280_temperature;BME280_humidity;BME280_pressure;Samples;Min_cycle;Max_cycle;Signal;HPM_P1;HPM_P2
2023/01/03 00:01:13;;;;;;;;;;;;;;;10.17;69.89;99468.75;4334017;33;20022;-84
2023/01/03 00:03:38;;;;;;;;;;;;;;;10.23;69.84;99468.50;4334024;33;20050;-84
2023/01/03 00:06:03;;;;;;;;;;;;;;;10.20;69.45;99473.91;4334094;33;20013;-84
2023/01/03 00:08:29;;;;;;;;;;;;;;;9.97;69.62;99470.44;4333971;33;19974;-84
2023/01/03 00:10:54;;;;;;;;;;;;;;;9.87;70.59;99478.75;4333676;33;19987;-85
2023/01/03 00:13:19;;;;;;;;;;;;;;;10.10;69.27;99478.69;4335214;33;20001;-85
2023/01/03 00:15:45;;;;;;;;;;;;;;;9.85;70.20;99484.13;4335194;33;19975;-84
2023/01/03 00:18:10;;;;;;;;;;;;;;;10.07;69.20;99483.22;4335100;33;19989;-85
2023/01/03 00:20:35;;;;;;;;;;;;;;;10.14;68.69;99482.03;4335129;33;20010;-84
2023/01/03 00:23:01;;;;;;;;;;;;;;;9.69;70.12;99483.00;4334974;33;20348;-84
2023/01/03 00:25:26;;;;;;;;;;;;;;;9.61;71.05;99483.31;4335194;33;19971;-84
2023/01/03 00:27:51;;;;;;;;;;;;;;;10.00;69.48;99483.47;4335025;33;20320;-84
2023/01/03 00:30:16;;;;;;;;;;;;;;;9.66;71.05;99478.72;4334915;33;20011;-85
2023/01/03 00:32:42;;;;;;;;;;;;;;;9.67;70.27;99487.47;4334963;33;19976;-85
2023/01/03 00:35:07;;;;;;;;;;;;;;;9.77;70.24;99492.31;4335018;33;20292;-84
2023/01/03 00:37:32;;;;;;;;;;;;;;;9.95;69.52;99490.72;4335019;33;19967;-84
2023/01/03 00:39:58;;;;;;;;;;;;;;;10.10;69.27;99496.25;4334885;33;19994;-84
2023/01/03 00:42:23;;;;;;;;;;;;;;;10.08;69.21;99500.72;4333732;33;20026;-85
2023/01/03 00:44:49;;;;;;;;;;;;;;;9.96;69.36;99507.34;4333787;33;19991;-84
2023/01/03 00:47:14;;;;;;;;;;;;;;;9.99;69.37;99510.72;4334821;33;20348;-84
2023/01/03 00:49:39;;;;;;;;;;;;;;;10.11;68.99;99501.47;4334771;33;20009;-85
2023/01/03 00:52:05;;;;;;;;;;;;;;;10.07;69.41;99507.78;4333782;33;20013;-84
2023/01/03 00:54:30;;;;;;;;;;;;;;;10.28;68.81;99494.66;4333562;33;19975;-84
2023/01/03 00:56:55;;;;;;;;;;;;;;;9.90;69.26;99500.56;4333665;33;20325;-84
2023/01/03 00:59:21;;;;;;;;;;;;;;;9.95;70.33;99495.12;4335053;33;19999;-84
2023/01/03 01:01:48;;;;;;;;;;;;;;;10.30;69.07;99496.31;4333664;33;20304;-84
2023/01/03 01:04:13;;;;;;;;;;;;;;;10.48;68.66;99499.94;4335032;33;19970;-84
2023/01/03 01:06:40;;;;;;;;;;;;;;;10.48;68.38;99504.38;4334509;33;19985;-84
2023/01/03 01:09:06;;;;;;;;;;;;;;;10.49;68.60;99503.44;4333437;33;19984;-83
2023/01/03 01:11:31;;;;;;;;;;;;;;;10.63;67.98;99499.28;4334177;33;20034;-84
2023/01/03 01:13:56;;;;;;;;;;;;;;;10.78;67.62;99502.19;4334452;33;20322;-84
2023/01/03 01:16:23;;;;;;;;;;;;;;;10.80;67.73;99508.25;4333393;33;19975;-84
2023/01/03 01:18:49;;;;;;;;;;;;;;;10.89;67.01;99509.59;4334349;33;19995;-85
2023/01/03 01:21:16;;;;;;;;;;;;;;;10.76;68.04;99510.16;4334380;33;20026;-84
2023/01/03 01:23:41;;;;;;;;;;;;;;;10.55;69.19;99506.66;4334012;33;19989;-84
2023/01/03 01:26:07;;;;;;;;;;;;;;;10.50;69.59;99513.06;4333835;33;78883;-85
2023/01/03 01:28:33;;;;;;;;;;;;;;;10.22;71.06;99519.47;4335150;33;20002;-85
2023/01/03 01:30:59;;;;;;;;;;;;;;;10.43;70.44;99508.06;4334939;33;20031;-85
2023/01/03 01:33:24;;;;;;;;;;;;;;;10.39;70.76;99503.84;4336350;33;20281;-85
2023/01/03 01:35:49;;;;;;;;;;;;;;;10.01;72.15;99511.50;4336148;33;19985;-83
2023/01/03 01:38:14;;;;;;;;;;;;;;;9.83;73.73;99509.59;4335104;33;19987;-85
2023/01/03 01:40:40;;;;;;;;;;;;;;;10.18;72.10;99500.28;4336121;33;20335;-86
2023/01/03 01:46:17;;;;;;;;;;;;;;;10.12;72.49;99492.66;4336342;33;19989;-85
2023/01/03 01:48:42;;;;;;;;;;;;;;;10.38;71.36;99493.34;4336209;33;20552;-85
2023/01/03 01:51:07;;;;;;;;;;;;;;;10.36;71.50;99488.16;4334944;33;19995;-85
2023/01/03 01:53:33;;;;;;;;;;;;;;;10.07;72.26;99497.25;4334811;33;20025;-84
2023/01/03 01:56:10;;;;;;;;;;;;;;;10.20;71.93;99503.72;4334897;33;19971;-84
2023/01/03 01:58:37;;;;;;;;;;;;;;;10.38;71.49;99501.25;4334950;33;20036;-84
2023/01/03 02:01:03;;;;;;;;;;;;;;;10.11;71.25;99500.59;4334806;33;19999;-85
2023/01/03 02:03:28;;;;;;;;;;;;;;;10.13;71.79;99502.25;4334987;33;19975;-84
2023/01/03 02:05:53;;;;;;;;;;;;;;;10.28;71.49;99507.81;4334801;33;19983;-85
2023/01/03 02:08:19;;;;;;;;;;;;;;;10.13;71.39;99519.81;4334926;33;19979;-85
2023/01/03 02:10:58;;;;;;;;;;;;;;;10.07;71.87;99520.09;4334849;33;19991;-85
2023/01/03 02:13:23;;;;;;;;;;;;;;;10.26;71.03;99520.16;4336085;33;20331;-84
2023/01/03 02:16:07;;;;;;;;;;;;;;;10.09;71.00;99519.09;4335857;33;20014;-85
2023/01/03 02:18:38;;;;;;;;;;;;;;;9.90;71.86;99520.75;4336191;33;20014;-85
2023/01/03 02:21:06;;;;;;;;;;;;;;;9.83;71.66;99522.75;4336087;33;19987;-84
2023/01/03 02:23:40;;;;;;;;;;;;;;;9.75;73.18;99525.69;4336011;33;20007;-84
2023/01/03 02:26:24;;;;;;;;;;;;;;;9.32;74.19;99529.13;4335937;33;20042;-84
2023/01/03 02:29:08;;;;;;;;;;;;;;;10.10;71.70;99518.19;4336338;33;19982;-86
2023/01/03 02:31:54;;;;;;;;;;;;;;;10.26;70.97;99515.78;4335668;33;20336;-86
2023/01/03 02:34:26;;;;;;;;;;;;;;;10.25;70.71;99508.78;4334598;33;20017;-85
2023/01/03 02:36:54;;;;;;;;;;;;;;;8.82;75.46;99517.78;4334651;33;20324;-84
2023/01/03 02:39:23;;;;;;;;;;;;;;;9.70;72.95;99511.03;4335808;33;19997;-85
2023/01/03 02:41:51;;;;;;;;;;;;;;;9.76;71.50;99513.41;4335762;33;19979;-84
2023/01/03 02:44:16;;;;;;;;;;;;;;;9.73;72.32;99516.16;4335817;33;19976;-85
2023/01/03 02:46:42;;;;;;;;;;;;;;;9.41;73.55;99523.53;4335804;33;19993;-85
2023/01/03 02:49:27;;;;;;;;;;;;;;;9.60;72.56;99529.81;4335724;33;19980;-85
2023/01/03 02:51:53;;;;;;;;;;;;;;;9.34;73.96;99533.41;4334558;33;20002;-84
2023/01/03 02:54:29;;;;;;;;;;;;;;;9.28;75.33;99538.06;4334547;33;19990;-85
2023/01/03 02:56:57;;;;;;;;;;;;;;;9.53;73.91;99530.09;4334691;33;19991;-86
2023/01/03 02:59:34;;;;;;;;;;;;;;;9.21;75.89;99534.78;4334554;33;20010;-85
2023/01/03 03:01:59;;;;;;;;;;;;;;;9.55;74.40;99534.38;4334465;33;20014;-85
2023/01/03 03:04:24;;;;;;;;;;;;;;;9.02;76.48;99535.47;4334539;33;20018;-85
2023/01/03 03:06:56;;;;;;;;;;;;;;;9.22;76.38;99528.63;4334370;33;19971;-84
2023/01/03 03:09:21;;;;;;;;;;;;;;;9.21;75.92;99532.16;4335737;33;19971;-85
2023/01/03 03:14:37;;;;;;;;;;;;;;;9.69;74.11;99530.34;4334726;33;19985;-85
2023/01/03 03:17:04;;;;;;;;;;;;;;;9.77;73.85;99539.69;4334383;33;20320;-84
2023/01/03 03:25:17;;;;;;;;;;;;;;;10.23;71.82;99524.62;4335668;33;20334;-84
2023/01/03 03:30:29;;;;;;;;;;;;;;;9.97;73.63;99535.41;4334615;33;19998;-85
2023/01/03 03:32:54;;;;;;;;;;;;;;;9.75;75.02;99525.69;4335435;33;20046;-87
2023/01/03 03:35:20;;;;;;;;;;;;;;;9.96;74.13;99539.78;4334388;33;19970;-84
2023/01/03 03:37:46;;;;;;;;;;;;;;;9.77;75.53;99539.69;4334283;33;19979;-86
2023/01/03 03:45:42;;;;;;;;;;;;;;;10.23;73.30;99527.28;4334891;33;20016;-85
2023/01/03 03:48:07;;;;;;;;;;;;;;;9.70;74.66;99537.34;4335300;33;19979;-82
2023/01/03 03:50:38;;;;;;;;;;;;;;;9.67;75.07;99532.19;4335286;33;19993;-85
2023/01/03 03:53:04;;;;;;;;;;;;;;;10.13;73.51;99533.00;4334294;33;20006;-84
2023/01/03 03:55:32;;;;;;;;;;;;;;;9.58;76.09;99530.75;4335401;33;20388;-84
2023/01/03 03:58:01;;;;;;;;;;;;;;;10.15;73.19;99523.25;4334137;33;20104;-84
2023/01/03 04:00:28;;;;;;;;;;;;;;;9.82;74.70;99531.59;4334168;33;19982;-84
2023/01/03 04:02:54;;;;;;;;;;;;;;;9.22;76.46;99531.25;4334140;33;20010;-85
2023/01/03 04:05:20;;;;;;;;;;;;;;;10.16;72.75;99535.47;4334213;33;19971;-84
2023/01/03 04:07:45;;;;;;;;;;;;;;;10.19;72.50;99535.37;4334006;33;19971;-85
2023/01/03 04:10:11;;;;;;;;;;;;;;;10.24;72.05;99533.41;4334219;33;19987;-84
2023/01/03 04:12:36;;;;;;;;;;;;;;;10.43;71.13;99533.53;4334374;33;20317;-84
2023/01/03 04:15:02;;;;;;;;;;;;;;;10.59;70.24;99533.75;4335305;33;20005;-85
2023/01/03 04:17:28;;;;;;;;;;;;;;;10.13;72.29;99533.00;4335488;33;20018;-85
2023/01/03 04:19:53;;;;;;;;;;;;;;;10.16;72.03;99539.00;4335374;33;19983;-85
2023/01/03 04:22:18;;;;;;;;;;;;;;;10.40;71.12;99537.16;4335386;33;19980;-85
2023/01/03 04:24:43;;;;;;;;;;;;;;;9.95;72.90;99538.09;4335427;33;20014;-85
2023/01/03 04:27:09;;;;;;;;;;;;;;;9.88;73.37;99541.88;4335270;33;19993;-85
2023/01/03 04:29:34;;;;;;;;;;;;;;;9.65;75.02;99542.78;4335325;33;20325;-85
2023/01/03 04:31:59;;;;;;;;;;;;;;;10.07;73.04;99543.78;4334058;33;20007;-85
2023/01/03 04:34:24;;;;;;;;;;;;;;;9.62;75.20;99542.91;4335305;33;19989;-85
2023/01/03 04:36:50;;;;;;;;;;;;;;;10.05;73.00;99535.94;4335315;33;19990;-85
2023/01/03 04:39:15;;;;;;;;;;;;;;;10.22;71.94;99536.09;4335280;33;19975;-82
2023/01/03 04:41:40;;;;;;;;;;;;;;;10.26;71.56;99535.97;4335111;33;19975;-84
2023/01/03 04:44:05;;;;;;;;;;;;;;;9.97;72.17;99543.28;4335152;33;20348;-84
2023/01/03 04:46:32;;;;;;;;;;;;;;;10.21;71.45;99538.78;4334068;33;19989;-85
2023/01/03 04:48:57;;;;;;;;;;;;;;;10.19;71.62;99552.00;4335102;33;19995;-84
2023/01/03 04:51:23;;;;;;;;;;;;;;;10.22;71.39;99551.06;4335208;33;19979;-85
2023/01/03 04:53:48;;;;;;;;;;;;;;;9.98;71.94;99543.22;4333793;33;19978;-84
2023/01/03 04:56:13;;;;;;;;;;;;;;;9.97;71.79;99541.50;4335041;33;20249;-84
2023/01/03 04:58:38;;;;;;;;;;;;;;;9.76;72.66;99543.22;4333781;33;19979;-85
2023/01/03 05:01:06;;;;;;;;;;;;;;;9.79;72.67;99540.47;4334964;33;20305;-84
2023/01/03 05:03:32;;;;;;;;;;;;;;;9.74;72.77;99554.72;4333597;33;19975;-84
2023/01/03 05:06:07;;;;;;;;;;;;;;;9.87;72.27;99555.09;4333593;33;20006;-85
2023/01/03 05:08:33;;;;;;;;;;;;;;;9.34;74.33;99556.22;4334528;33;20030;-84
2023/01/03 05:10:58;;;;;;;;;;;;;;;9.38;73.99;99557.81;4321546;33;20260;-85
2023/01/03 05:13:24;;;;;;;;;;;;;;;9.76;72.72;99560.78;4334737;33;19985;-84
2023/01/03 05:15:49;;;;;;;;;;;;;;;9.39;74.36;99559.56;4334881;33;19986;-84
2023/01/03 05:18:14;;;;;;;;;;;;;;;9.13;75.57;99558.72;4334855;33;19994;-85
2023/01/03 05:26:09;;;;;;;;;;;;;;;9.37;73.94;99570.12;4319925;33;19986;-85
2023/01/03 05:28:34;;;;;;;;;;;;;;;9.20;75.26;99575.16;4318582;33;19995;-85
2023/01/03 05:31:00;;;;;;;;;;;;;;;9.54;73.24;99573.87;4318357;33;20000;-85
2023/01/03 05:33:25;;;;;;;;;;;;;;;8.79;77.72;99580.09;4318452;33;19983;-85
2023/01/03 05:35:51;;;;;;;;;;;;;;;8.77;78.06;99587.16;4327187;33;20304;-86
2023/01/03 05:38:16;;;;;;;;;;;;;;;9.10;76.29;99586.88;4334261;33;20331;-85
2023/01/03 05:40:41;;;;;;;;;;;;;;;8.74;78.34;99585.50;4334050;33;19975;-84
2023/01/03 05:43:06;;;;;;;;;;;;;;;9.32;75.34;99592.25;4334221;33;19986;-86
2023/01/03 05:45:34;;;;;;;;;;;;;;;8.83;77.49;99594.84;4334069;33;20001;-85
2023/01/03 05:47:59;;;;;;;;;;;;;;;9.03;76.60;99599.41;4332952;33;20338;-85
2023/01/03 05:50:25;;;;;;;;;;;;;;;8.97;76.77;99600.47;4333076;33;20000;-85
2023/01/03 05:52:50;;;;;;;;;;;;;;;9.20;75.47;99604.06;4334048;33;20043;-86
2023/01/03 05:55:15;;;;;;;;;;;;;;;8.79;77.72;99609.84;4333797;33;20023;-84
2023/01/03 05:57:41;;;;;;;;;;;;;;;9.10;76.57;99611.41;4333936;33;19993;-85
2023/01/03 06:00:07;;;;;;;;;;;;;;;8.86;78.05;99607.88;4333799;33;20277;-85
2023/01/03 06:02:32;;;;;;;;;;;;;;;8.94;77.63;99604.97;4332603;33;19986;-85
2023/01/03 06:04:57;;;;;;;;;;;;;;;8.74;79.10;99609.12;4332638;33;20010;-85
2023/01/03 06:07:22;;;;;;;;;;;;;;;8.82;78.66;99612.34;4333860;33;20348;-85
2023/01/03 06:09:48;;;;;;;;;;;;;;;8.84;79.28;99610.53;4333581;33;19991;-86
2023/01/03 06:12:13;;;;;;;;;;;;;;;8.55;80.11;99611.53;4335872;33;19975;-85
2023/01/03 06:14:38;;;;;;;;;;;;;;;8.86;79.38;99615.75;4334807;33;19993;-85
2023/01/03 06:19:47;;;;;;;;;;;;;;;8.87;78.41;99616.62;4336042;33;20003;-85
2023/01/03 06:22:12;;;;;;;;;;;;;;;8.74;79.54;99619.66;4335874;33;19983;-85
2023/01/03 06:24:38;;;;;;;;;;;;;;;9.18;77.30;99621.66;4334705;33;20006;-85
2023/01/03 06:27:03;;;;;;;;;;;;;;;9.22;76.78;99629.38;4335950;33;19999;-85
2023/01/03 06:29:28;;;;;;;;;;;;;;;9.58;74.99;99628.09;4335911;33;19979;-86
2023/01/03 06:31:53;;;;;;;;;;;;;;;9.63;74.43;99629.63;4334437;33;19967;-85
2023/01/03 06:34:19;;;;;;;;;;;;;;;9.46;75.32;99624.12;4335927;33;19989;-86
2023/01/03 06:36:44;;;;;;;;;;;;;;;9.63;74.23;99613.84;4335825;33;20019;-86
2023/01/03 06:39:09;;;;;;;;;;;;;;;9.56;73.75;99629.91;4335912;33;20315;-85
2023/01/03 06:41:35;;;;;;;;;;;;;;;9.35;74.86;99628.94;4335759;33;20019;-85
2023/01/03 06:44:00;;;;;;;;;;;;;;;9.74;72.83;99625.75;4335813;33;20037;-85
2023/01/03 06:54:45;;;;;;;;;;;;;;;9.25;75.64;99639.78;4334903;33;19989;-86
2023/01/03 06:57:10;;;;;;;;;;;;;;;9.30;74.38;99652.78;4334626;33;19984;-85
2023/01/03 06:59:36;;;;;;;;;;;;;;;9.56;73.57;99651.84;4334510;33;20368;-86
2023/01/03 07:02:01;;;;;;;;;;;;;;;9.38;73.99;99657.75;4322061;33;20248;-85
2023/01/03 07:04:26;;;;;;;;;;;;;;;9.82;71.74;99658.75;4334430;33;20027;-85
2023/01/03 07:06:52;;;;;;;;;;;;;;;9.37;74.09;99671.84;4335610;33;20038;-85
2023/01/03 07:09:17;;;;;;;;;;;;;;;9.84;71.80;99664.81;4334422;33;20254;-85
2023/01/03 07:11:42;;;;;;;;;;;;;;;9.94;71.29;99675.00;4334445;33;19972;-85
2023/01/03 07:14:08;;;;;;;;;;;;;;;9.68;72.18;99676.84;4335540;33;20014;-85
2023/01/03 07:16:34;;;;;;;;;;;;;;;9.57;72.11;99676.38;4335663;33;19975;-85
2023/01/03 07:19:00;;;;;;;;;;;;;;;9.80;71.13;99670.25;4334460;33;20010;-85
2023/01/03 07:21:26;;;;;;;;;;;;;;;9.64;71.79;99673.47;4333315;33;19986;-85
2023/01/03 07:23:52;;;;;;;;;;;;;;;9.81;70.82;99666.69;4334389;33;20313;-86
2023/01/03 07:26:17;;;;;;;;;;;;;;;9.83;70.67;99676.28;4335551;33;19975;-85
2023/01/03 07:28:43;;;;;;;;;;;;;;;10.10;70.04;99678.78;4335579;33;20026;-85
2023/01/03 07:31:08;;;;;;;;;;;;;;;10.00;70.08;99675.63;4335317;33;20232;-85
2023/01/03 07:33:33;;;;;;;;;;;;;;;10.19;69.39;99683.66;4335572;33;19979;-85
2023/01/03 07:36:00;;;;;;;;;;;;;;;10.11;69.25;99679.63;4335465;33;19999;-85
2023/01/03 07:38:25;;;;;;;;;;;;;;;10.54;67.75;99684.09;4335462;33;20042;-85
2023/01/03 07:40:50;;;;;;;;;;;;;;;9.98;69.92;99685.34;4335307;33;20045;-85
2023/01/03 07:45:59;;;;;;;;;;;;;;;9.92;70.32;99684.72;4335302;33;20013;-85
2023/01/03 07:48:25;;;;;;;;;;;;;;;9.45;72.14;99694.31;4334284;33;19987;-85
2023/01/03 07:50:54;;;;;;;;;;;;;;;9.89;70.85;99693.63;4335363;33;19975;-85
2023/01/03 07:53:20;;;;;;;;;;;;;;;10.30;69.27;99687.69;4321912;33;20002;-85
2023/01/03 07:55:45;;;;;;;;;;;;;;;10.43;68.39;99696.84;4335333;33;19983;-85
2023/01/03 07:58:10;;;;;;;;;;;;;;;10.35;68.58;99697.16;4335405;33;19979;-85
2023/01/03 08:00:35;;;;;;;;;;;;;;;9.95;70.11;99711.81;4334737;33;20000;-84
2023/01/03 08:03:01;;;;;;;;;;;;;;;9.42;72.09;99710.19;4335263;33;19978;-85
2023/01/03 08:05:26;;;;;;;;;;;;;;;9.43;72.22;99708.44;4335275;33;19987;-85
2023/01/03 08:07:51;;;;;;;;;;;;;;;9.73;71.60;99702.97;4335231;33;20018;-85
2023/01/03 08:13:16;;;;;;;;;;;;;;;9.82;70.85;99710.53;4335357;33;20010;-85
2023/01/03 08:15:54;;;;;;;;;;;;;;;9.56;71.01;99703.56;4334214;33;20027;-83
2023/01/03 08:18:21;;;;;;;;;;;;;;;9.59;71.24;99712.22;4321719;33;19999;-85
2023/01/03 08:20:46;;;;;;;;;;;;;;;9.97;69.95;99717.88;4333960;33;20308;-86
2023/01/03 08:23:12;;;;;;;;;;;;;;;9.92;70.21;99725.06;4335072;33;19987;-85
2023/01/03 08:25:37;;;;;;;;;;;;;;;9.82;70.29;99732.44;4333902;33;19983;-85
2023/01/03 08:28:03;;;;;;;;;;;;;;;10.04;70.00;99724.63;4335135;33;19982;-86
2023/01/03 08:30:28;;;;;;;;;;;;;;;9.81;70.94;99722.84;4334017;33;19987;-85
2023/01/03 08:32:53;;;;;;;;;;;;;;;9.69;71.13;99725.91;4333377;33;19971;-84
2023/01/03 08:35:19;;;;;;;;;;;;;;;9.91;70.26;99727.75;4335041;33;19979;-84
2023/01/03 08:37:44;;;;;;;;;;;;;;;10.10;70.06;99726.19;4335075;33;19997;-85
2023/01/03 08:40:10;;;;;;;;;;;;;;;10.23;69.22;99719.50;4334926;33;20019;-86
2023/01/03 08:42:35;;;;;;;;;;;;;;;10.12;69.10;99729.59;4334922;33;19974;-85
2023/01/03 08:45:02;;;;;;;;;;;;;;;9.90;70.08;99731.31;4321390;33;20320;-86
2023/01/03 08:47:27;;;;;;;;;;;;;;;10.01;69.65;99726.50;4333773;33;20010;-85
2023/01/03 08:49:53;;;;;;;;;;;;;;;9.75;70.97;99733.56;4333621;33;20331;-82
2023/01/03 08:52:18;;;;;;;;;;;;;;;9.74;70.57;99737.13;4333485;33;20229;-86
2023/01/03 08:54:44;;;;;;;;;;;;;;;9.80;70.42;99742.16;4334583;33;19990;-86
2023/01/03 08:57:09;;;;;;;;;;;;;;;9.84;70.09;99735.03;4334722;33;19991;-83
2023/01/03 08:59:34;;;;;;;;;;;;;;;10.12;69.18;99729.59;4334787;33;19988;-84
2023/01/03 09:02:00;;;;;;;;;;;;;;;9.92;69.90;99732.09;4334685;33;19989;-85
2023/01/03 09:04:25;;;;;;;;;;;;;;;10.13;68.98;99741.84;4333613;33;19999;-84
2023/01/03 09:06:50;;;;;;;;;;;;;;;10.05;69.39;99749.16;4333628;33;20401;-82
2023/01/03 09:09:15;;;;;;;;;;;;;;;9.83;70.08;99746.44;4334809;33;19972;-84
2023/01/03 09:11:41;;;;;;;;;;;;;;;10.11;69.34;99748.09;4333608;33;20015;-84
2023/01/03 09:14:06;;;;;;;;;;;;;;;9.99;69.60;99752.88;4334706;33;20027;-85
2023/01/03 09:16:31;;;;;;;;;;;;;;;10.17;68.85;99751.34;4334521;33;19975;-85
2023/01/03 09:18:57;;;;;;;;;;;;;;;10.40;68.16;99739.97;4334624;33;20300;-84
2023/01/03 09:21:22;;;;;;;;;;;;;;;9.95;69.93;99748.66;4334735;33;19991;-85
2023/01/03 09:23:47;;;;;;;;;;;;;;;10.36;68.35;99748.91;4333527;33;20023;-84
2023/01/03 09:26:13;;;;;;;;;;;;;;;10.21;68.85;99744.19;4332987;33;20030;-86
2023/01/03 09:28:38;;;;;;;;;;;;;;;9.94;69.67;99746.91;4334655;33;19979;-86
2023/01/03 09:31:03;;;;;;;;;;;;;;;10.22;68.95;99743.28;4334415;33;19967;-86
2023/01/03 09:33:28;;;;;;;;;;;;;;;10.24;68.61;99747.56;4334690;33;19985;-86
2023/01/03 09:35:54;;;;;;;;;;;;;;;10.19;68.70;99738.97;4334225;33;19971;-85
2023/01/03 09:38:20;;;;;;;;;;;;;;;10.07;69.01;99741.22;4334439;33;20244;-84
2023/01/03 09:40:45;;;;;;;;;;;;;;;10.56;67.63;99734.09;4321011;33;19972;-83
2023/01/03 09:43:14;;;;;;;;;;;;;;;10.47;67.96;99735.34;4321054;33;20005;-80
2023/01/03 09:45:42;;;;;;;;;;;;;;;10.50;67.64;99735.19;4322683;33;19995;-82
2023/01/03 09:48:08;;;;;;;;;;;;;;;10.81;66.57;99740.09;4323254;33;20033;-86
2023/01/03 09:50:34;;;;;;;;;;;;;;;10.87;66.44;99743.41;4336379;33;19971;-87
2023/01/03 10:04:17;;;;;;;;;;;;;;;11.09;65.52;99741.63;4336161;33;20038;-86
2023/01/03 10:06:42;;;;;;;;;;;;;;;11.27;64.46;99740.00;4335962;33;19999;-84
2023/01/03 10:09:12;;;;;;;;;;;;;;;10.94;65.52;99734.34;4336057;33;20006;-86
2023/01/03 10:11:37;;;;;;;;;;;;;;;11.06;65.04;99735.63;4322517;33;20043;-82
2023/01/03 10:14:08;;;;;;;;;;;;;;;10.56;66.94;99736.72;4335954;33;20327;-83
2023/01/03 10:16:43;;;;;;;;;;;;;;;10.78;66.24;99742.87;4336017;33;19983;-86
2023/01/03 10:19:18;;;;;;;;;;;;;;;10.95;65.96;99738.69;4335985;33;20007;-84
2023/01/03 10:21:46;;;;;;;;;;;;;;;11.18;65.29;99735.09;4322662;33;19971;-84
2023/01/03 10:24:24;;;;;;;;;;;;;;;11.10;65.18;99734.56;4335976;33;19987;-86
2023/01/03 10:26:50;;;;;;;;;;;;;;;10.90;65.89;99740.66;4335950;33;20001;-83
2023/01/03 10:29:16;;;;;;;;;;;;;;;11.06;65.40;99738.25;4334749;33;19967;-84
2023/01/03 10:32:00;;;;;;;;;;;;;;;11.57;64.02;99727.28;4334593;33;20248;-83
2023/01/03 10:34:25;;;;;;;;;;;;;;;11.77;63.18;99723.75;4335050;33;20003;-83
2023/01/03 10:36:50;;;;;;;;;;;;;;;12.23;61.79;99725.25;4336150;33;20027;-84
2023/01/03 10:39:15;;;;;;;;;;;;;;;12.31;61.60;99723.97;4335645;33;19971;-84
2023/01/03 10:41:42;;;;;;;;;;;;;;;11.66;63.48;99725.16;4334376;33;19986;-84
2023/01/03 10:44:27;;;;;;;;;;;;;;;11.89;63.64;99718.84;4334793;33;20003;-84
2023/01/03 10:46:53;;;;;;;;;;;;;;;12.42;61.18;99714.69;4334879;33;20014;-83
2023/01/03 10:49:20;;;;;;;;;;;;;;;12.34;61.18;99715.94;4336028;33;19970;-83
2023/01/03 10:51:45;;;;;;;;;;;;;;;12.71;60.14;99703.59;4334886;33;20277;-85
2023/01/03 10:54:12;;;;;;;;;;;;;;;12.86;59.52;99704.59;4335731;33;19979;-84
2023/01/03 10:56:37;;;;;;;;;;;;;;;12.22;60.43;99699.78;4334472;33;20014;-84
2023/01/03 10:59:09;;;;;;;;;;;;;;;12.86;59.12;99703.75;4335702;33;19967;-83
2023/01/03 11:01:34;;;;;;;;;;;;;;;12.76;59.08;99704.19;4334385;33;19993;-84
2023/01/03 11:04:13;;;;;;;;;;;;;;;12.25;60.55;99713.69;4335654;33;20014;-85
2023/01/03 11:06:40;;;;;;;;;;;;;;;12.44;60.04;99710.19;4335830;33;20379;-84
2023/01/03 11:09:08;;;;;;;;;;;;;;;12.13;60.79;99708.97;4334534;33;19991;-84
2023/01/03 11:11:34;;;;;;;;;;;;;;;12.27;60.46;99696.00;4334553;33;20279;-84
2023/01/03 11:14:19;;;;;;;;;;;;;;;11.73;61.24;99693.12;4334434;33;20039;-85
2023/01/03 11:16:44;;;;;;;;;;;;;;;11.89;61.11;99700.38;4334494;33;19992;-85
2023/01/03 11:19:11;;;;;;;;;;;;;;;11.58;62.24;99688.53;4334388;33;20344;-85
2023/01/03 11:21:39;;;;;;;;;;;;;;;11.94;60.87;99686.06;4334094;33;19976;-84
2023/01/03 11:24:05;;;;;;;;;;;;;;;11.34;62.26;99696.63;4335572;33;19994;-85
2023/01/03 11:26:39;;;;;;;;;;;;;;;11.42;62.46;99698.91;4335438;33;19975;-82
2023/01/03 11:29:07;;;;;;;;;;;;;;;11.51;61.87;99693.25;4335604;33;19990;-84
2023/01/03 11:31:37;;;;;;;;;;;;;;;11.60;62.03;99697.25;4335353;33;20010;-83
2023/01/03 11:34:21;;;;;;;;;;;;;;;11.72;61.74;99695.84;4335450;33;20494;-82
2023/01/03 11:36:51;;;;;;;;;;;;;;;11.58;61.58;99699.94;4334413;33;20029;-83
2023/01/03 11:39:37;;;;;;;;;;;;;;;11.67;61.39;99703.97;4334486;33;20422;-83
2023/01/03 11:42:02;;;;;;;;;;;;;;;11.61;61.31;99704.25;4318476;33;19982;-82
2023/01/03 11:44:33;;;;;;;;;;;;;;;11.51;61.71;99700.28;4318560;33;20022;-83
2023/01/03 11:46:58;;;;;;;;;;;;;;;11.65;61.17;99700.56;4318569;33;20004;-83
2023/01/03 11:49:33;;;;;;;;;;;;;;;11.87;60.57;99694.31;4318545;33;20018;-79
2023/01/03 11:52:18;;;;;;;;;;;;;;;11.38;61.81;99699.97;4318686;33;20034;-81
2023/01/03 11:54:43;;;;;;;;;;;;;;;11.49;61.75;99696.84;4315970;33;20006;-82
2023/01/03 11:57:16;;;;;;;;;;;;;;;11.48;61.34;99688.09;4318779;33;19999;-80
2023/01/03 11:59:56;;;;;;;;;;;;;;;11.31;62.21;99707.28;4306397;33;19975;-82
2023/01/03 12:02:27;;;;;;;;;;;;;;;11.75;60.97;99693.94;4318433;33;20327;-81
2023/01/03 12:05:06;;;;;;;;;;;;;;;11.33;61.53;99708.06;4294414;33;19975;-82
2023/01/03 12:07:41;;;;;;;;;;;;;;;11.52;61.33;99696.72;4305970;33;20074;-81
2023/01/03 12:10:06;;;;;;;;;;;;;;;11.49;61.33;99689.81;4318930;33;20062;-81
2023/01/03 12:12:50;;;;;;;;;;;;;;;11.90;60.33;99687.13;4318257;33;20309;-81
2023/01/03 12:15:19;;;;;;;;;;;;;;;11.77;60.13;99700.00;4318602;33;20039;-81
2023/01/03 12:18:03;;;;;;;;;;;;;;;11.66;60.77;99689.06;4318695;33;20007;-81
2023/01/03 12:20:30;;;;;;;;;;;;;;;12.22;58.98;99695.34;4335248;33;20023;-83
2023/01/03 12:23:14;;;;;;;;;;;;;;;12.19;59.02;99679.66;4333966;33;19982;-83
2023/01/03 12:25:41;;;;;;;;;;;;;;;12.09;58.79;99689.78;4335366;33;19978;-81
2023/01/03 12:28:12;;;;;;;;;;;;;;;11.82;58.79;99683.97;4334271;33;20034;-83
2023/01/03 12:30:47;;;;;;;;;;;;;;;11.69;59.64;99678.38;4334280;33;19989;-82
2023/01/03 12:33:18;;;;;;;;;;;;;;;11.63;59.99;99678.66;4334232;33;19979;-82
2023/01/03 12:35:46;;;;;;;;;;;;;;;11.32;60.77;99687.03;4334176;33;19983;-83
2023/01/03 12:38:12;;;;;;;;;;;;;;;11.39;60.92;99688.47;4335039;33;20030;-83
2023/01/03 12:40:38;;;;;;;;;;;;;;;11.76;59.33;99677.19;4334834;33;19983;-83
2023/01/03 12:43:11;;;;;;;;;;;;;;;11.69;59.49;99675.72;4333929;33;19975;-83
2023/01/03 12:45:46;;;;;;;;;;;;;;;11.40;60.84;99690.22;4333664;33;19982;-83
2023/01/03 12:48:26;;;;;;;;;;;;;;;12.04;59.04;99675.94;4334953;33;20030;-83
2023/01/03 12:50:51;;;;;;;;;;;;;;;11.69;59.57;99678.38;4333734;33;19989;-83
2023/01/03 12:53:17;;;;;;;;;;;;;;;11.57;59.93;99677.12;4334462;33;19983;-81
2023/01/03 12:55:48;;;;;;;;;;;;;;;11.66;59.55;99690.84;4334669;33;19983;-82
2023/01/03 12:58:14;;;;;;;;;;;;;;;11.23;60.75;99698.00;4334995;33;20387;-83
2023/01/03 13:00:39;;;;;;;;;;;;;;;11.42;60.24;99693.63;4334732;33;19995;-83
2023/01/03 13:03:23;;;;;;;;;;;;;;;11.43;60.11;99684.78;4334600;33;20019;-83
2023/01/03 13:05:55;;;;;;;;;;;;;;;11.21;60.49;99691.00;4334714;33;20308;-83
2023/01/03 13:08:30;;;;;;;;;;;;;;;10.93;61.68;99682.53;4334657;33;20009;-83
2023/01/03 13:10:57;;;;;;;;;;;;;;;11.56;60.11;99678.03;4334596;33;19974;-83
2023/01/03 13:13:22;;;;;;;;;;;;;;;11.02;61.29;99693.53;4333498;33;19994;-83
2023/01/03 13:15:47;;;;;;;;;;;;;;;11.17;60.56;99693.84;4333288;33;20356;-83
2023/01/03 13:18:22;;;;;;;;;;;;;;;11.17;60.77;99691.19;4333398;33;19978;-83
2023/01/03 13:20:50;;;;;;;;;;;;;;;11.73;59.29;99681.72;4336037;33;19983;-84
2023/01/03 13:23:25;;;;;;;;;;;;;;;11.32;60.11;99693.19;4335316;33;20324;-84
2023/01/03 13:26:03;;;;;;;;;;;;;;;11.49;59.94;99694.22;4336422;33;20022;-84
2023/01/03 13:28:29;;;;;;;;;;;;;;;11.36;60.29;99689.50;4336352;33;20003;-84
2023/01/03 13:31:15;;;;;;;;;;;;;;;11.02;61.31;99695.34;4334973;33;20018;-83
2023/01/03 13:34:01;;;;;;;;;;;;;;;10.96;61.20;99696.44;4336293;33;19981;-83
2023/01/03 13:36:26;;;;;;;;;;;;;;;10.98;61.13;99696.37;4319485;33;20412;-83
2023/01/03 13:38:51;;;;;;;;;;;;;;;10.92;61.23;99702.78;4307488;33;20017;-84
2023/01/03 13:41:26;;;;;;;;;;;;;;;11.11;60.55;99699.38;4307379;33;20364;-84
2023/01/03 13:43:51;;;;;;;;;;;;;;;11.19;60.38;99700.75;4319386;33;20375;-84
2023/01/03 13:46:27;;;;;;;;;;;;;;;11.34;59.42;99696.63;4307205;33;19999;-84